This is the latest recevied weather packets stored in our database for station/object KF8LO-1. If no packets are shown the sender has not sent any weather packets the latest 10 day(s).
| Time | Temp. | Humidity | Pressure | Rain* | Wind** | Luminosity | Snow |
|---|---|---|---|---|---|---|---|
| 1777579997 | 5.56° C | 87% | 0 hPa | 0.25 mm | - | - | - |
| 1777579697 | 5.56° C | 86% | 0 hPa | 0.25 mm | - | - | - |
| 1777579397 | 5.56° C | 88% | 0 hPa | 0.25 mm | - | - | - |
| 1777579097 | 5.56° C | 88% | 0 hPa | 0.25 mm | - | - | - |
| 1777578797 | 5.56° C | 88% | 0 hPa | 0 mm | - | - | - |
| 1777578497 | 6.11° C | 83% | 0 hPa | 0 mm | - | - | - |
| 1777578197 | 6.11° C | 81% | 0 hPa | 0 mm | - | - | - |
| 1777577897 | 6.67° C | 77% | 0 hPa | 0 mm | - | - | - |
| 1777577597 | 7.22° C | 72% | 0 hPa | 0 mm | - | - | - |
| 1777577297 | 7.22° C | 73% | 0 hPa | 0 mm | - | - | - |
| 1777576997 | 7.22° C | 74% | 0 hPa | 0 mm | - | - | - |
| 1777576697 | 6.67° C | 74% | 0 hPa | 0 mm | - | - | - |
| 1777576397 | 6.67° C | 75% | 0 hPa | 0 mm | - | - | - |
| 1777576097 | 6.67° C | 75% | 0 hPa | 0 mm | - | - | - |
| 1777575797 | 6.67° C | 76% | 0 hPa | 0 mm | - | - | - |
| 1777575497 | 6.67° C | 77% | 0 hPa | 0 mm | - | - | - |
| 1777575197 | 6.11° C | 79% | 0 hPa | 0 mm | - | - | - |
| 1777574897 | 6.11° C | 78% | 0 hPa | 0 mm | - | - | - |
| 1777574597 | 6.67° C | 74% | 0 hPa | 0 mm | - | - | - |
| 1777574297 | 7.22° C | 71% | 0 hPa | 0 mm | - | - | - |
| 1777573997 | 7.22° C | 70% | 0 hPa | 0 mm | - | - | - |
| 1777573697 | 7.22° C | 70% | 0 hPa | 0 mm | - | - | - |
| 1777573397 | 6.67° C | 70% | 0 hPa | 0 mm | - | - | - |
| 1777573097 | 6.67° C | 69% | 0 hPa | 0 mm | - | - | - |
| 1777572797 | 6.67° C | 68% | 0 hPa | 0 mm | - | - | - |
* Rain latest hour (hover to see other rain measurements)
** Current wind speed in m/s (hover to see current wind gust speed)